createdAt,value
2023-05-22T07:21:55.481Z,16.17
2023-05-22T07:24:21.861Z,16.16
2023-05-22T07:26:49.365Z,16.25
2023-05-22T07:29:16.132Z,16.40
2023-05-22T07:31:42.656Z,16.48
2023-05-22T07:34:09.410Z,16.64
2023-05-22T07:36:36.120Z,16.77
2023-05-22T07:39:02.704Z,16.89
2023-05-22T07:41:29.157Z,16.97
2023-05-22T07:43:55.675Z,17.04
2023-05-22T07:46:22.291Z,17.11
2023-05-22T07:48:48.852Z,17.24
2023-05-22T07:51:15.278Z,17.28
2023-05-22T07:53:41.780Z,17.27
2023-05-22T07:56:08.239Z,17.32
2023-05-22T07:58:34.758Z,17.33
2023-05-22T08:01:01.826Z,17.44
2023-05-22T08:03:28.574Z,17.45
2023-05-22T08:05:55.084Z,17.45
2023-05-22T08:08:21.665Z,17.52
2023-05-22T08:11:03.004Z,17.60
2023-05-22T08:13:30.583Z,17.59
2023-05-22T08:16:00.661Z,17.62
2023-05-22T08:18:28.846Z,17.62
2023-05-22T08:20:55.874Z,17.62
2023-05-22T08:23:22.365Z,17.58
2023-05-22T08:25:50.109Z,17.55
2023-05-22T08:28:16.532Z,17.51
2023-05-22T08:30:43.076Z,17.46
2023-05-22T08:33:09.543Z,17.47
2023-05-22T08:35:36.280Z,17.43
2023-05-22T08:38:02.735Z,17.40
2023-05-22T08:40:37.504Z,17.46
2023-05-22T08:43:05.789Z,17.46
2023-05-22T08:45:35.090Z,17.53
2023-05-22T08:48:05.853Z,17.53
2023-05-22T08:50:33.355Z,17.58
2023-05-22T08:53:03.947Z,17.76
2023-05-22T08:55:30.568Z,17.79
2023-05-22T08:57:57.565Z,17.93
2023-05-22T09:00:24.074Z,18.07
2023-05-22T09:02:52.456Z,18.23
2023-05-22T09:05:19.457Z,18.40
2023-05-22T09:07:45.931Z,18.44
2023-05-22T09:10:12.364Z,18.42
2023-05-22T09:12:38.727Z,18.48
2023-05-22T09:15:13.504Z,18.62
2023-05-22T09:17:41.042Z,18.65
2023-05-22T09:20:10.200Z,18.70
2023-05-22T09:22:40.813Z,18.75
2023-05-22T09:25:07.634Z,18.68
2023-05-22T09:27:34.326Z,18.61
2023-05-22T09:30:01.117Z,18.65
2023-05-22T09:32:33.343Z,18.65
2023-05-22T09:35:04.747Z,18.73
2023-05-22T09:37:35.504Z,18.81
2023-05-22T09:40:06.978Z,18.99
2023-05-22T09:42:37.261Z,19.08
2023-05-22T09:45:08.446Z,19.21
2023-05-22T09:47:35.764Z,19.27
2023-05-22T09:50:06.372Z,19.30
2023-05-22T09:52:37.902Z,19.35
2023-05-22T09:55:08.698Z,19.39
2023-05-22T09:57:43.356Z,19.35
2023-05-22T10:00:18.408Z,19.32
2023-05-22T10:02:59.204Z,19.29
2023-05-22T10:05:30.767Z,19.29
2023-05-22T10:08:05.086Z,19.29
2023-05-22T10:10:33.021Z,19.29
2023-05-22T10:13:06.438Z,19.25
2023-05-22T10:15:33.167Z,19.24
2023-05-22T10:18:00.757Z,19.34
2023-05-22T10:20:28.860Z,19.37
2023-05-22T10:22:56.917Z,19.41
2023-05-22T10:25:23.589Z,19.45
2023-05-22T10:27:53.481Z,19.45
2023-05-22T10:30:53.005Z,19.49
2023-05-22T10:33:25.984Z,19.60
2023-05-22T10:35:52.687Z,19.60
2023-05-22T10:38:27.687Z,19.63
2023-05-22T10:40:55.580Z,19.65
2023-05-22T10:43:22.873Z,19.65
2023-05-22T10:45:49.351Z,19.68
2023-05-22T10:48:22.260Z,19.70
2023-05-22T10:50:54.693Z,19.77
2023-05-22T10:53:25.581Z,19.78
2023-05-22T10:55:54.792Z,19.82
2023-05-22T10:58:37.386Z,19.97
2023-05-22T11:01:14.488Z,20.10
2023-05-22T11:04:00.989Z,20.13
2023-05-22T11:06:31.086Z,20.24
2023-05-22T11:08:57.912Z,20.22
2023-05-22T11:11:27.785Z,20.23
2023-05-22T11:14:03.327Z,20.32
2023-05-22T11:16:33.598Z,20.34
2023-05-22T11:19:22.866Z,20.39
2023-05-22T11:21:50.608Z,20.52
2023-05-22T11:24:20.357Z,20.54
2023-05-22T11:27:07.340Z,20.55
2023-05-22T11:29:34.393Z,20.59
2023-05-22T11:32:01.939Z,20.57
2023-05-22T11:34:28.660Z,20.61
2023-05-22T11:36:59.709Z,20.71
2023-05-22T11:39:26.699Z,20.73
2023-05-22T11:41:53.264Z,20.89
2023-05-22T11:44:19.905Z,20.92
2023-05-22T11:46:46.454Z,20.99
2023-05-22T11:49:13.201Z,21.07
2023-05-22T11:51:40.517Z,21.07
2023-05-22T11:54:07.781Z,20.99
2023-05-22T11:56:34.298Z,20.98
2023-05-22T11:59:00.694Z,21.21
2023-05-22T12:01:27.070Z,21.17
2023-05-22T12:03:54.236Z,21.21
2023-05-22T12:06:21.010Z,21.42
2023-05-22T12:08:47.675Z,21.32
2023-05-22T12:11:14.405Z,21.22
2023-05-22T12:13:41.290Z,21.16
2023-05-22T12:16:22.008Z,21.08
2023-05-22T12:18:52.448Z,21.03
2023-05-22T12:21:22.396Z,21.00
2023-05-22T12:23:52.110Z,20.95
2023-05-22T12:26:19.749Z,21.01
2023-05-22T12:28:46.344Z,21.03
2023-05-22T12:31:21.690Z,21.09
2023-05-22T12:33:48.298Z,21.24
2023-05-22T12:36:14.983Z,21.27
2023-05-22T12:38:41.373Z,21.33
2023-05-22T12:41:07.816Z,21.34
2023-05-22T12:43:34.331Z,21.37
2023-05-22T12:46:02.494Z,21.38
2023-05-22T12:48:29.330Z,21.33
2023-05-22T12:50:55.819Z,21.42
2023-05-22T12:53:22.227Z,21.45
2023-05-22T12:55:48.644Z,21.46
2023-05-22T12:58:15.284Z,21.57
2023-05-22T13:00:41.899Z,21.67
2023-05-22T13:03:08.964Z,21.80
2023-05-22T13:05:35.817Z,21.86
2023-05-22T13:08:02.217Z,21.79
2023-05-22T13:10:29.171Z,21.86
2023-05-22T13:12:55.928Z,21.90
2023-05-22T13:15:22.513Z,21.90
2023-05-22T13:17:48.988Z,21.97
2023-05-22T13:20:15.463Z,22.03
2023-05-22T13:22:42.020Z,21.95
2023-05-22T13:25:08.829Z,21.99
2023-05-22T13:27:35.300Z,21.90
2023-05-22T13:30:01.837Z,22.06
2023-05-22T13:32:28.343Z,21.96
2023-05-22T13:34:54.734Z,21.87
2023-05-22T13:37:21.272Z,21.90
2023-05-22T13:39:47.782Z,21.91
2023-05-22T13:42:14.548Z,21.96
2023-05-22T13:44:41.147Z,22.08
2023-05-22T13:47:07.649Z,22.03
2023-05-22T13:49:34.311Z,22.02
2023-05-22T13:52:00.822Z,22.07
2023-05-22T13:54:27.749Z,22.13
2023-05-22T13:56:54.266Z,22.10
2023-05-22T13:59:20.997Z,22.03
2023-05-22T14:01:47.410Z,22.11
2023-05-22T14:04:13.815Z,22.07
2023-05-22T14:06:40.210Z,22.11
2023-05-22T14:09:08.776Z,22.18
2023-05-22T14:11:35.656Z,22.20
2023-05-22T14:14:02.086Z,22.18
2023-05-22T14:16:28.566Z,22.23
2023-05-22T14:18:55.077Z,22.23
2023-05-22T14:21:21.619Z,22.25
2023-05-22T14:23:48.094Z,22.35
2023-05-22T14:26:14.885Z,22.34
2023-05-22T14:28:41.974Z,22.22
2023-05-22T14:31:08.411Z,22.23
2023-05-22T14:33:35.819Z,22.21
2023-05-22T14:36:02.444Z,22.36
2023-05-22T14:38:33.607Z,22.46
2023-05-22T14:41:01.158Z,22.44
2023-05-22T14:43:27.622Z,22.41
2023-05-22T14:45:56.474Z,22.39
2023-05-22T14:48:26.449Z,22.33
2023-05-22T14:50:56.085Z,22.26
2023-05-22T14:53:23.193Z,22.27
2023-05-22T14:55:49.639Z,22.20
2023-05-22T14:58:16.053Z,22.12
2023-05-22T15:00:47.173Z,22.04
2023-05-22T15:03:13.657Z,21.99
2023-05-22T15:05:40.410Z,21.97
2023-05-22T15:08:07.057Z,21.93
2023-05-22T15:10:33.493Z,21.91
2023-05-22T15:12:59.991Z,21.82
2023-05-22T15:15:26.593Z,21.77
2023-05-22T15:17:53.204Z,21.69
2023-05-22T15:20:19.793Z,21.52
2023-05-22T15:22:46.212Z,21.48
2023-05-22T15:25:14.850Z,21.40
2023-05-22T15:27:42.163Z,21.44
2023-05-22T15:30:12.184Z,21.43
2023-05-22T15:32:39.236Z,21.45
2023-05-22T15:35:06.848Z,21.37
2023-05-22T15:37:36.668Z,21.46
2023-05-22T15:40:04.574Z,21.40
2023-05-22T15:42:31.084Z,21.43
2023-05-22T15:44:59.086Z,21.54
2023-05-22T15:47:25.675Z,21.54
2023-05-22T15:49:52.187Z,21.49
2023-05-22T15:52:19.186Z,21.48
2023-05-22T15:54:45.591Z,21.46
2023-05-22T15:57:11.971Z,21.43
2023-05-22T15:59:38.364Z,21.45
2023-05-22T16:02:04.920Z,21.44
2023-05-22T16:04:31.410Z,21.50
2023-05-22T16:06:58.344Z,21.59
2023-05-22T16:09:24.815Z,21.53
2023-05-22T16:11:51.252Z,21.59
2023-05-22T16:14:17.706Z,21.54
2023-05-22T16:16:44.148Z,21.57
2023-05-22T16:19:11.425Z,21.57
2023-05-22T16:21:38.321Z,21.57
2023-05-22T16:24:06.425Z,21.58
2023-05-22T16:26:32.884Z,21.59
2023-05-22T16:28:59.268Z,21.64
2023-05-22T16:31:25.850Z,21.68
2023-05-22T16:33:53.149Z,21.73
2023-05-22T16:36:19.579Z,21.77
2023-05-22T16:38:45.969Z,21.72
2023-05-22T16:41:12.383Z,21.72
2023-05-22T16:43:38.854Z,21.72
2023-05-22T16:46:05.288Z,21.65
2023-05-22T16:48:31.776Z,21.62
2023-05-22T16:50:58.182Z,21.60
2023-05-22T16:53:24.631Z,21.57
2023-05-22T16:55:51.202Z,21.50
2023-05-22T16:58:17.747Z,21.42
2023-05-22T17:00:44.449Z,21.32
2023-05-22T17:03:11.936Z,21.26
2023-05-22T17:05:38.836Z,21.20
2023-05-22T17:08:06.537Z,21.15
2023-05-22T17:10:32.978Z,21.12
2023-05-22T17:12:59.344Z,21.06
2023-05-22T17:15:25.738Z,21.00
2023-05-22T17:17:52.216Z,20.99
2023-05-22T17:20:23.091Z,20.97
2023-05-22T17:22:49.969Z,20.91
2023-05-22T17:25:16.863Z,20.89
2023-05-22T17:27:43.425Z,20.85
2023-05-22T17:30:10.177Z,20.84
2023-05-22T17:32:37.743Z,20.82
2023-05-22T17:35:06.339Z,20.83
2023-05-22T17:37:33.370Z,20.84
2023-05-22T17:39:59.769Z,20.82
2023-05-22T17:42:26.210Z,20.80
2023-05-22T17:44:52.647Z,20.79
2023-05-22T17:47:19.064Z,20.69
2023-05-22T17:49:45.486Z,20.69
2023-05-22T17:52:13.146Z,20.61
2023-05-22T17:54:39.619Z,20.56
2023-05-22T17:57:06.367Z,20.51
2023-05-22T17:59:33.145Z,20.44
2023-05-22T18:01:59.824Z,20.40
2023-05-22T18:04:26.322Z,20.34
2023-05-22T18:06:52.802Z,20.28
2023-05-22T18:09:19.327Z,20.27
2023-05-22T18:11:45.859Z,20.26
2023-05-22T18:14:12.566Z,20.20
2023-05-22T18:16:39.017Z,20.12
2023-05-22T18:19:05.526Z,20.07
2023-05-22T18:21:32.287Z,20.00
2023-05-22T18:23:58.829Z,19.96
2023-05-22T18:26:26.652Z,19.92
2023-05-22T18:28:53.320Z,19.92
2023-05-22T18:31:20.159Z,19.88
2023-05-22T18:33:46.722Z,19.78
2023-05-22T18:36:13.267Z,19.70
2023-05-22T18:38:39.792Z,19.64
2023-05-22T18:41:06.693Z,19.57
2023-05-22T18:43:33.210Z,19.53
2023-05-22T18:45:59.702Z,19.49
2023-05-22T18:48:27.155Z,19.42
2023-05-22T18:50:54.177Z,19.33
2023-05-22T18:53:22.163Z,19.24
2023-05-22T18:55:48.885Z,19.12
2023-05-22T18:58:15.463Z,19.05
2023-05-22T19:00:42.341Z,18.99
2023-05-22T19:03:11.208Z,18.93
2023-05-22T19:05:37.989Z,18.88
2023-05-22T19:08:05.042Z,18.79
2023-05-22T19:10:31.618Z,18.80
2023-05-22T19:12:58.000Z,18.70
2023-05-22T19:15:25.586Z,18.65
2023-05-22T19:17:52.272Z,18.66
2023-05-22T19:20:18.791Z,18.69
2023-05-22T19:22:45.188Z,18.71
2023-05-22T19:25:11.569Z,18.73
2023-05-22T19:27:39.322Z,18.79
2023-05-22T19:30:07.196Z,18.79
2023-05-22T19:32:33.936Z,18.79
2023-05-22T19:35:00.497Z,18.76
2023-05-22T19:37:26.956Z,18.75
2023-05-22T19:39:54.222Z,18.73
2023-05-22T19:42:20.638Z,18.66
2023-05-22T19:44:47.373Z,18.61
2023-05-22T19:47:14.163Z,18.58
2023-05-22T19:49:40.754Z,18.56
2023-05-22T19:52:07.255Z,18.49
2023-05-22T19:54:35.152Z,18.47
2023-05-22T19:57:03.092Z,18.44
2023-05-22T19:59:29.601Z,18.41
2023-05-22T20:01:56.115Z,18.40
2023-05-22T20:04:23.067Z,18.33
2023-05-22T20:06:49.772Z,18.27
2023-05-22T20:09:16.747Z,18.19
2023-05-22T20:11:43.138Z,18.17
2023-05-22T20:14:11.808Z,18.14
2023-05-22T20:16:38.301Z,18.14
2023-05-22T20:19:04.839Z,18.13
2023-05-22T20:21:32.216Z,18.07
2023-05-22T20:23:59.281Z,18.07
2023-05-22T20:26:26.092Z,18.05
2023-05-22T20:28:52.637Z,18.02
2023-05-22T20:31:19.196Z,17.96
2023-05-22T20:33:45.635Z,17.96
2023-05-22T20:36:14.911Z,17.87
2023-05-22T20:38:42.545Z,17.90
2023-05-22T20:41:09.899Z,17.86
2023-05-22T20:43:36.536Z,17.85
2023-05-22T20:46:03.072Z,17.84
2023-05-22T20:48:29.961Z,17.82
2023-05-22T20:50:56.427Z,17.80
2023-05-22T20:53:24.487Z,17.74
2023-05-22T20:55:53.213Z,17.71
2023-05-22T20:58:20.036Z,17.73
2023-05-22T21:00:49.413Z,17.71
2023-05-22T21:03:17.627Z,17.63
2023-05-22T21:05:44.148Z,17.64
2023-05-22T21:08:10.547Z,17.66
2023-05-22T21:10:37.025Z,17.63
2023-05-22T21:13:03.452Z,17.66
2023-05-22T21:15:29.856Z,17.65
2023-05-22T21:17:56.524Z,17.60
2023-05-22T21:20:23.042Z,17.53
2023-05-22T21:22:49.493Z,17.60
2023-05-22T21:25:16.015Z,17.59
2023-05-22T21:27:42.407Z,17.57
2023-05-22T21:30:12.554Z,17.58
2023-05-22T21:32:39.135Z,17.51
2023-05-22T21:35:06.191Z,17.55
2023-05-22T21:37:32.620Z,17.56
2023-05-22T21:39:59.041Z,17.58
2023-05-22T21:42:26.223Z,17.54
2023-05-22T21:44:52.746Z,17.57
2023-05-22T21:47:19.202Z,17.60
2023-05-22T21:49:45.811Z,17.60
2023-05-22T21:52:12.703Z,17.61
2023-05-22T21:54:39.582Z,17.60
2023-05-22T21:57:06.564Z,17.59
2023-05-22T21:59:33.452Z,17.56
2023-05-22T22:01:59.973Z,17.52
2023-05-22T22:04:26.393Z,17.55
2023-05-22T22:06:52.869Z,17.58
2023-05-22T22:09:19.291Z,17.57
2023-05-22T22:11:45.821Z,17.55
2023-05-22T22:14:12.219Z,17.53
2023-05-22T22:16:40.621Z,17.50
2023-05-22T22:19:07.105Z,17.53
2023-05-22T22:21:34.101Z,17.60
2023-05-22T22:24:00.679Z,17.60
2023-05-22T22:26:30.688Z,17.54
2023-05-22T22:28:57.541Z,17.60
2023-05-22T22:31:24.504Z,17.56
2023-05-22T22:33:50.997Z,17.50
2023-05-22T22:36:17.498Z,17.52
2023-05-22T22:38:43.926Z,17.48
2023-05-22T22:41:11.021Z,17.48
2023-05-22T22:43:37.675Z,17.45
2023-05-22T22:46:04.166Z,17.45
2023-05-22T22:48:30.581Z,17.41
2023-05-22T22:50:57.836Z,17.40
2023-05-22T22:53:24.257Z,17.39
2023-05-22T22:55:56.117Z,17.35
2023-05-22T22:58:23.057Z,17.37
2023-05-22T23:00:49.496Z,17.33
2023-05-22T23:03:16.083Z,17.23
2023-05-22T23:05:42.726Z,17.16
2023-05-22T23:08:09.337Z,17.18
2023-05-22T23:10:35.877Z,17.17
2023-05-22T23:13:02.268Z,17.22
2023-05-22T23:15:28.748Z,17.22
2023-05-22T23:17:55.229Z,17.23
2023-05-22T23:20:21.731Z,17.24
2023-05-22T23:22:48.126Z,17.28
2023-05-22T23:25:14.595Z,17.30
2023-05-22T23:27:41.885Z,17.28
2023-05-22T23:30:09.183Z,17.32
2023-05-22T23:32:35.786Z,17.37
2023-05-22T23:35:02.263Z,17.34
2023-05-22T23:37:28.699Z,17.33
2023-05-22T23:39:55.195Z,17.29
2023-05-22T23:42:21.645Z,17.27
2023-05-22T23:44:48.054Z,17.16
2023-05-22T23:47:14.512Z,17.19
2023-05-22T23:49:40.905Z,17.20
2023-05-22T23:52:08.013Z,17.21
2023-05-22T23:54:34.453Z,17.17
2023-05-22T23:57:01.146Z,17.20
2023-05-22T23:59:27.511Z,17.25
